Time;durP1;ratioP1;P1;durP2;ratioP2;P2;SDS_P1;SDS_P2;PMS_P1;PMS_P2;Temp;Humidity;BMP_temperature;BMP_pressure;BME280_temperature;BME280_humidity;BME280_pressure;Samples;Min_cycle;Max_cycle;Signal;HPM_P1;HPM_P2
2022/09/17 00:09:55;;;;;;;10.40;1.77;;;10.40;99.90;;;;;;21074875;28;20139;-75
2022/09/17 00:19:56;;;;;;;7.80;1.30;;;10.10;99.90;;;;;;21074454;28;20040;-75
2022/09/17 00:29:57;;;;;;;5.27;2.47;;;9.90;99.90;;;;;;21074002;28;20032;-75
2022/09/17 00:39:58;;;;;;;4.03;1.53;;;9.80;99.90;;;;;;21073356;28;20044;-75
2022/09/17 00:50:04;;;;;;;2.00;1.30;;;9.90;99.90;;;;;;21072979;28;20518;-75
2022/09/17 01:00:07;;;;;;;2.67;1.20;;;9.80;99.90;;;;;;21084087;28;20069;-75
2022/09/17 01:10:25;;;;;;;3.17;1.63;;;9.80;99.90;;;;;;21089110;28;20079;-75
2022/09/17 01:20:27;;;;;;;3.13;1.10;;;9.60;99.90;;;;;;21088606;28;20044;-75
2022/09/17 01:30:59;;;;;;;1.75;1.30;;;9.40;99.90;;;;;;21087841;28;20040;-75
2022/09/17 01:41:30;;;;;;;2.47;1.30;;;9.30;99.90;;;;;;21068781;28;20059;-75
2022/09/17 01:51:45;;;;;;;5.00;1.60;;;9.20;99.90;;;;;;21068012;28;20031;-75
2022/09/17 02:01:50;;;;;;;4.93;1.05;;;9.10;99.90;;;;;;21085393;28;20097;-75
2022/09/17 02:11:57;;;;;;;1.55;1.05;;;8.90;99.90;;;;;;21084154;28;20036;-75
2022/09/17 02:22:13;;;;;;;14.35;1.38;;;8.90;99.90;;;;;;21083658;28;20529;-75
2022/09/17 02:32:14;;;;;;;4.43;1.50;;;8.90;99.90;;;;;;21082829;28;20036;-75
2022/09/17 02:42:22;;;;;;;6.43;2.23;;;8.80;99.90;;;;;;21081885;28;20051;-75
2022/09/17 02:52:30;;;;;;;8.90;3.08;;;8.90;99.90;;;;;;21062970;28;20234;-75
2022/09/17 03:02:42;;;;;;;8.48;2.60;;;8.80;99.90;;;;;;21080317;28;20075;-75
2022/09/17 03:12:43;;;;;;;8.60;3.25;;;8.90;99.90;;;;;;21079613;28;20051;-75
2022/09/17 03:22:43;;;;;;;5.20;2.53;;;8.80;99.90;;;;;;21078252;28;20476;-75
2022/09/17 03:32:44;;;;;;;4.63;2.10;;;8.90;99.90;;;;;;21059966;28;20072;-75
2022/09/17 03:42:45;;;;;;;12.23;2.42;;;8.90;99.90;;;;;;21077218;28;20036;-74
2022/09/17 03:52:46;;;;;;;3.67;2.17;;;8.90;99.90;;;;;;21076700;28;20040;-74
2022/09/17 04:02:47;;;;;;;7.23;2.33;;;8.90;99.90;;;;;;21075759;28;20032;-75
2022/09/17 04:12:48;;;;;;;8.50;2.43;;;8.90;99.90;;;;;;21075088;28;20048;-75
2022/09/17 04:22:49;;;;;;;8.23;1.90;;;9.00;99.90;;;;;;21074506;28;20127;-75
2022/09/17 04:32:49;;;;;;;6.13;1.43;;;9.00;99.90;;;;;;21074151;28;20036;-75
2022/09/17 04:42:58;;;;;;;4.50;2.20;;;9.00;99.90;;;;;;21073759;28;20036;-75
2022/09/17 04:52:59;;;;;;;3.75;2.05;;;8.90;99.90;;;;;;21073479;28;20460;-75
2022/09/17 05:03:00;;;;;;;6.00;2.20;;;8.90;99.90;;;;;;21073141;28;20200;-74
2022/09/17 05:13:00;;;;;;;2.33;2.00;;;9.00;99.90;;;;;;21054430;28;20047;-75
2022/09/17 05:23:01;;;;;;;4.27;1.73;;;8.90;99.90;;;;;;21072197;28;20086;-75
2022/09/17 05:33:05;;;;;;;3.30;1.90;;;9.00;99.90;;;;;;21053858;28;20602;-75
2022/09/17 05:43:06;;;;;;;4.85;1.98;;;9.00;99.90;;;;;;21076714;28;20384;-74
2022/09/17 05:53:10;;;;;;;2.80;1.87;;;9.00;99.90;;;;;;21067879;28;20043;-75
2022/09/17 06:03:13;;;;;;;3.65;1.92;;;8.90;99.90;;;;;;21065806;28;20132;-75
2022/09/17 06:13:19;;;;;;;6.40;2.00;;;8.80;99.90;;;;;;21084508;28;20097;-75
2022/09/17 06:23:20;;;;;;;2.15;1.73;;;8.70;99.90;;;;;;21083900;28;20051;-75
2022/09/17 06:33:22;;;;;;;3.05;2.10;;;8.80;99.90;;;;;;21083107;28;20079;-76
2022/09/17 06:43:23;;;;;;;6.40;2.55;;;9.10;99.90;;;;;;21082077;28;20499;-76
2022/09/17 06:53:24;;;;;;;2.70;1.63;;;9.30;99.90;;;;;;21081673;28;20032;-77
2022/09/17 07:03:25;;;;;;;1.77;1.10;;;10.70;99.90;;;;;;21064578;28;20454;-76
2022/09/17 07:13:26;;;;;;;8.33;1.73;;;10.80;99.90;;;;;;21061860;28;20090;-76
2022/09/17 07:23:29;;;;;;;3.63;1.50;;;10.70;99.90;;;;;;21079141;28;20047;-77
2022/09/17 07:33:32;;;;;;;5.78;1.48;;;10.50;99.90;;;;;;21060817;28;20047;-75
2022/09/17 07:43:34;;;;;;;4.40;1.38;;;10.50;99.90;;;;;;21058589;28;20051;-75
2022/09/17 07:53:35;;;;;;;2.85;1.23;;;10.20;99.90;;;;;;21077205;28;20060;-75
2022/09/17 08:03:38;;;;;;;5.47;1.23;;;10.20;99.90;;;;;;21075932;28;20040;-75
2022/09/17 08:13:39;;;;;;;2.30;1.02;;;11.30;99.90;;;;;;21075161;28;20099;-75
2022/09/17 08:23:42;;;;;;;3.33;1.13;;;10.90;99.90;;;;;;21074499;28;20047;-75
2022/09/17 08:33:43;;;;;;;2.03;0.80;;;11.90;99.90;;;;;;21074083;28;20505;-75
2022/09/17 08:44:17;;;;;;;3.43;1.23;;;12.00;99.90;;;;;;21073093;28;20055;-75
2022/09/17 08:54:33;;;;;;;3.35;1.05;;;11.50;99.90;;;;;;21073356;28;20032;-75
2022/09/17 09:04:52;;;;;;;1.40;0.63;;;11.90;99.90;;;;;;21072853;28;20132;-75
2022/09/17 09:14:59;;;;;;;1.75;0.70;;;12.30;99.90;;;;;;21072837;28;20040;-75
2022/09/17 09:25:21;;;;;;;1.65;0.80;;;11.80;99.90;;;;;;21088244;28;20060;-75
2022/09/17 09:35:30;;;;;;;5.70;0.90;;;12.30;99.90;;;;;;21087553;28;20032;-75
2022/09/17 09:46:13;;;;;;;3.78;2.42;;;12.00;99.90;;;;;;21087208;28;20036;-75
2022/09/17 09:56:17;;;;;;;1.98;0.88;;;11.80;99.90;;;;;;21085735;28;20044;-75
2022/09/17 10:06:21;;;;;;;3.42;0.77;;;12.90;99.90;;;;;;21084893;28;20036;-75
2022/09/17 10:16:24;;;;;;;2.38;0.90;;;12.30;99.90;;;;;;21085029;28;20050;-75
2022/09/17 10:26:29;;;;;;;1.52;0.70;;;12.20;99.90;;;;;;21083220;28;20070;-76
2022/09/17 10:36:59;;;;;;;1.88;0.73;;;12.80;99.90;;;;;;21083100;28;20185;-76
2022/09/17 10:47:17;;;;;;;1.58;0.60;;;12.70;99.90;;;;;;21063433;28;20411;-77
2022/09/17 10:57:32;;;;;;;1.58;0.45;;;14.50;99.90;;;;;;21082170;28;20050;-76
2022/09/17 11:07:47;;;;;;;1.17;0.50;;;14.40;99.90;;;;;;21082545;28;20410;-78
2022/09/17 11:18:16;;;;;;;0.98;0.60;;;13.70;99.90;;;;;;21092437;28;20530;-77
2022/09/17 11:28:29;;;;;;;1.30;0.95;;;13.10;99.90;;;;;;21074033;28;20067;-79
2022/09/17 11:38:42;;;;;;;3.28;0.63;;;12.70;99.90;;;;;;21101272;28;20036;-77
2022/09/17 11:48:57;;;;;;;1.75;0.75;;;13.00;99.90;;;;;;21103076;28;20044;-79
2022/09/17 11:59:16;;;;;;;1.55;0.70;;;13.00;99.90;;;;;;21097096;28;20439;-79
2022/09/17 12:09:24;;;;;;;4.55;0.82;;;13.60;99.90;;;;;;21093257;28;20050;-79
2022/09/17 12:19:47;;;;;;;2.28;0.80;;;13.00;99.90;;;;;;21100100;28;20089;-78
2022/09/17 12:30:09;;;;;;;2.33;0.90;;;12.80;99.90;;;;;;21076887;28;20044;-79
2022/09/17 12:40:20;;;;;;;;;;;12.20;99.90;;;;;;21082461;28;20040;-78
2022/09/17 12:50:26;;;;;;;2.10;0.77;;;13.90;99.90;;;;;;21096884;28;19918;-78
2022/09/17 13:00:28;;;;;;;4.10;1.10;;;12.60;99.90;;;;;;21115263;28;20174;-79
2022/09/17 13:10:51;;;;;;;2.75;1.05;;;12.20;99.90;;;;;;21109891;28;20089;-78
2022/09/17 13:21:15;;;;;;;6.28;1.30;;;11.70;99.90;;;;;;21116838;28;20608;-78
2022/09/17 13:31:41;;;;;;;1.98;1.27;;;11.10;99.90;;;;;;21098386;28;20185;-77
2022/09/17 13:41:42;;;;;;;2.50;1.00;;;11.40;99.90;;;;;;21074631;28;20044;-76
2022/09/17 13:51:44;;;;;;;1.63;0.97;;;11.60;99.90;;;;;;21087083;28;20542;-76
2022/09/17 14:02:00;;;;;;;2.25;1.05;;;11.50;99.90;;;;;;21067160;28;20036;-75
2022/09/17 14:12:01;;;;;;;5.82;1.20;;;12.30;99.90;;;;;;21067035;28;20123;-75
2022/09/17 14:22:05;;;;;;;2.13;1.40;;;12.20;99.90;;;;;;21070320;28;20036;-77
2022/09/17 14:32:13;;;;;;;4.53;1.30;;;12.60;99.90;;;;;;21089479;28;20032;-77
2022/09/17 14:42:20;;;;;;;1.70;1.50;;;12.50;99.90;;;;;;21071125;28;20055;-77
2022/09/17 14:52:31;;;;;;;8.63;1.20;;;12.70;99.90;;;;;;21081985;28;20040;-76
2022/09/17 15:02:43;;;;;;;1.73;1.15;;;12.50;99.90;;;;;;21081008;28;20098;-76
2022/09/17 15:12:46;;;;;;;15.27;1.25;;;12.40;99.90;;;;;;21061586;28;20097;-75
2022/09/17 15:22:56;;;;;;;1.23;0.90;;;12.40;99.90;;;;;;21079145;28;20082;-76
2022/09/17 15:32:59;;;;;;;2.45;1.10;;;12.60;99.90;;;;;;21076915;28;20237;-75
2022/09/17 15:43:03;;;;;;;4.72;1.13;;;12.30;99.90;;;;;;21071110;28;20044;-76
2022/09/17 15:53:09;;;;;;;1.55;0.93;;;12.10;99.90;;;;;;21075178;28;20032;-76
2022/09/17 16:03:39;;;;;;;1.73;0.82;;;12.20;99.90;;;;;;21092900;28;20036;-77
2022/09/17 16:13:40;;;;;;;2.13;0.90;;;12.00;99.90;;;;;;21024467;28;20040;-76
2022/09/17 16:23:41;;;;;;;4.47;1.00;;;11.90;99.90;;;;;;21084632;28;20508;-77
2022/09/17 16:33:42;;;;;;;3.35;1.00;;;11.80;99.90;;;;;;21056718;28;20462;-75
2022/09/17 16:43:43;;;;;;;15.47;1.23;;;11.80;99.90;;;;;;21055430;28;20032;-76
2022/09/17 16:53:44;;;;;;;5.60;1.10;;;11.70;99.90;;;;;;21063526;28;20051;-76
2022/09/17 17:03:47;;;;;;;;;;;11.80;99.90;;;;;;21073063;28;20036;-76
2022/09/17 17:13:48;;;;;;;3.05;0.95;;;11.50;99.90;;;;;;21070769;28;20283;-76
2022/09/17 17:23:49;;;;;;;4.40;1.07;;;11.30;99.90;;;;;;21072899;28;20119;-77
2022/09/17 17:33:50;;;;;;;3.53;1.10;;;11.30;99.90;;;;;;21073467;28;20453;-77
2022/09/17 17:43:52;;;;;;;3.40;0.90;;;11.10;99.90;;;;;;21085673;28;20040;-77
2022/09/17 17:53:53;;;;;;;4.72;1.08;;;11.00;99.90;;;;;;21086777;28;20121;-77
2022/09/17 18:03:59;;;;;;;4.57;1.30;;;11.10;99.90;;;;;;21091929;28;20032;-78
2022/09/17 18:14:00;;;;;;;3.20;1.17;;;11.10;99.90;;;;;;21064646;28;20518;-77
2022/09/17 18:24:02;;;;;;;3.67;1.40;;;11.10;99.90;;;;;;21064440;28;20039;-77
2022/09/17 18:34:05;;;;;;;7.95;1.27;;;11.00;99.90;;;;;;21081369;28;20270;-76
2022/09/17 18:44:07;;;;;;;8.57;2.13;;;10.90;99.90;;;;;;21080778;28;20119;-76
2022/09/17 18:54:09;;;;;;;7.80;1.40;;;10.70;99.90;;;;;;21080890;28;20085;-76
2022/09/17 19:04:10;;;;;;;1.63;0.88;;;10.30;99.90;;;;;;21061812;28;20094;-77
2022/09/17 19:14:19;;;;;;;4.03;0.97;;;9.90;99.90;;;;;;21009057;28;20041;-77
2022/09/17 19:24:22;;;;;;;;;;;10.10;99.90;;;;;;20968866;28;20033;-78
2022/09/17 19:34:23;;;;;;;4.67;1.40;;;10.10;99.90;;;;;;20894308;28;19952;-77
2022/09/17 19:44:24;;;;;;;3.13;1.37;;;10.10;99.90;;;;;;20993587;28;20290;-76
2022/09/17 19:54:25;;;;;;;4.37;2.10;;;10.20;99.90;;;;;;21002821;28;20150;-76
2022/09/17 20:04:26;;;;;;;1.47;0.83;;;10.30;99.90;;;;;;21081551;22;20048;-79
2022/09/17 20:14:27;;;;;;;4.53;1.60;;;10.30;99.90;;;;;;21024554;28;20043;-78
2022/09/17 20:24:27;;;;;;;3.57;1.37;;;10.10;99.90;;;;;;21003082;28;20045;-79
2022/09/17 20:34:28;;;;;;;8.23;1.80;;;10.00;99.90;;;;;;21004642;28;20029;-79
2022/09/17 20:44:29;;;;;;;6.37;1.67;;;9.90;99.90;;;;;;20966306;28;20041;-78
2022/09/17 20:54:30;;;;;;;2.87;1.43;;;9.80;99.90;;;;;;20986479;28;20482;-76
2022/09/17 21:04:31;;;;;;;3.90;1.50;;;9.80;99.90;;;;;;20983144;28;20508;-79
2022/09/17 21:14:31;;;;;;;4.50;1.80;;;9.80;99.90;;;;;;21008291;28;20410;-79
2022/09/17 21:24:32;;;;;;;6.30;2.20;;;9.80;99.90;;;;;;21064602;28;20085;-80
2022/09/17 21:34:33;;;;;;;5.77;1.37;;;9.70;99.90;;;;;;21001257;28;20041;-79
2022/09/17 21:44:34;;;;;;;7.40;1.30;;;9.70;99.90;;;;;;21011992;28;20454;-77
2022/09/17 21:54:35;;;;;;;5.07;1.37;;;9.80;99.90;;;;;;21012081;28;20028;-77
2022/09/17 22:04:35;;;;;;;3.60;1.37;;;9.80;99.90;;;;;;20994901;28;20191;-79
2022/09/17 22:14:37;;;;;;;2.87;1.43;;;9.80;99.90;;;;;;21011381;28;20044;-79
2022/09/17 22:24:42;;;;;;;4.78;1.55;;;9.70;99.90;;;;;;20998497;28;20036;-80
2022/09/17 22:34:43;;;;;;;8.35;1.30;;;9.80;99.90;;;;;;20989986;28;20503;-79
2022/09/17 22:44:43;;;;;;;5.83;1.70;;;9.80;99.90;;;;;;20995057;28;20123;-79
2022/09/17 22:54:44;;;;;;;8.53;1.40;;;9.80;99.90;;;;;;20994535;28;20131;-76
2022/09/17 23:04:45;;;;;;;6.33;1.40;;;9.80;99.90;;;;;;21010876;28;20047;-78
2022/09/17 23:14:46;;;;;;;2.93;1.17;;;9.80;99.90;;;;;;21010175;28;20044;-79
2022/09/17 23:24:48;;;;;;;6.45;1.15;;;9.70;99.90;;;;;;21010095;28;20033;-79
2022/09/17 23:34:49;;;;;;;3.95;1.00;;;9.70;99.90;;;;;;21008344;28;20491;-79
2022/09/17 23:44:50;;;;;;;4.73;0.97;;;9.70;99.90;;;;;;21008005;28;20478;-76
2022/09/17 23:54:51;;;;;;;4.40;1.27;;;9.70;99.90;;;;;;20990194;28;20293;-78
